sensor_id;sensor_type;location;lat;lon;timestamp;P1;durP1;ratioP1;P2;durP2;ratioP2
33006;SDS011;19361;51.598;7.650;2024-01-25T00:03:39;39.17;;;7.60;;
33006;SDS011;19361;51.598;7.650;2024-01-25T00:08:39;38.97;;;7.32;;
33006;SDS011;19361;51.598;7.650;2024-01-25T00:13:40;41.60;;;7.57;;
33006;SDS011;19361;51.598;7.650;2024-01-25T00:18:41;47.58;;;8.65;;
33006;SDS011;19361;51.598;7.650;2024-01-25T00:23:41;38.83;;;7.78;;
33006;SDS011;19361;51.598;7.650;2024-01-25T00:28:42;35.65;;;7.35;;
33006;SDS011;19361;51.598;7.650;2024-01-25T00:33:43;38.10;;;7.20;;
33006;SDS011;19361;51.598;7.650;2024-01-25T00:38:43;34.17;;;7.55;;
33006;SDS011;19361;51.598;7.650;2024-01-25T00:43:45;38.35;;;8.15;;
33006;SDS011;19361;51.598;7.650;2024-01-25T00:48:46;46.42;;;9.20;;
33006;SDS011;19361;51.598;7.650;2024-01-25T00:53:47;44.03;;;8.52;;
33006;SDS011;19361;51.598;7.650;2024-01-25T00:58:48;36.97;;;6.72;;
33006;SDS011;19361;51.598;7.650;2024-01-25T01:03:49;37.22;;;7.15;;
33006;SDS011;19361;51.598;7.650;2024-01-25T01:08:52;41.45;;;8.65;;
33006;SDS011;19361;51.598;7.650;2024-01-25T01:13:53;38.30;;;7.57;;
33006;SDS011;19361;51.598;7.650;2024-01-25T01:18:54;37.42;;;7.07;;
33006;SDS011;19361;51.598;7.650;2024-01-25T01:23:54;37.65;;;6.65;;
33006;SDS011;19361;51.598;7.650;2024-01-25T01:28:55;43.17;;;7.95;;
33006;SDS011;19361;51.598;7.650;2024-01-25T01:33:56;38.05;;;7.93;;
33006;SDS011;19361;51.598;7.650;2024-01-25T01:38:58;42.40;;;7.57;;
33006;SDS011;19361;51.598;7.650;2024-01-25T01:43:58;35.65;;;7.03;;
33006;SDS011;19361;51.598;7.650;2024-01-25T01:48:59;39.15;;;8.48;;
33006;SDS011;19361;51.598;7.650;2024-01-25T01:54:03;35.33;;;6.72;;
33006;SDS011;19361;51.598;7.650;2024-01-25T01:59:10;36.60;;;7.87;;
33006;SDS011;19361;51.598;7.650;2024-01-25T02:04:11;40.58;;;7.68;;
33006;SDS011;19361;51.598;7.650;2024-01-25T02:09:12;39.20;;;7.57;;
33006;SDS011;19361;51.598;7.650;2024-01-25T02:14:13;43.67;;;7.85;;
33006;SDS011;19361;51.598;7.650;2024-01-25T02:19:14;37.08;;;7.80;;
33006;SDS011;19361;51.598;7.650;2024-01-25T02:24:14;39.65;;;7.10;;
33006;SDS011;19361;51.598;7.650;2024-01-25T02:29:15;39.03;;;7.68;;
33006;SDS011;19361;51.598;7.650;2024-01-25T02:34:16;36.95;;;7.68;;
33006;SDS011;19361;51.598;7.650;2024-01-25T02:39:16;42.05;;;7.63;;
33006;SDS011;19361;51.598;7.650;2024-01-25T02:44:17;37.63;;;6.00;;
33006;SDS011;19361;51.598;7.650;2024-01-25T02:49:18;40.65;;;6.75;;
33006;SDS011;19361;51.598;7.650;2024-01-25T02:54:18;36.25;;;6.85;;
33006;SDS011;19361;51.598;7.650;2024-01-25T02:59:19;31.75;;;6.40;;
33006;SDS011;19361;51.598;7.650;2024-01-25T03:04:20;37.08;;;7.47;;
33006;SDS011;19361;51.598;7.650;2024-01-25T03:09:20;37.72;;;6.35;;
33006;SDS011;19361;51.598;7.650;2024-01-25T03:14:23;35.47;;;8.38;;
33006;SDS011;19361;51.598;7.650;2024-01-25T03:19:24;40.17;;;6.60;;
33006;SDS011;19361;51.598;7.650;2024-01-25T03:24:26;39.70;;;6.95;;
33006;SDS011;19361;51.598;7.650;2024-01-25T03:29:27;41.33;;;6.88;;
33006;SDS011;19361;51.598;7.650;2024-01-25T03:34:27;28.98;;;5.85;;
33006;SDS011;19361;51.598;7.650;2024-01-25T03:39:28;39.25;;;6.25;;
33006;SDS011;19361;51.598;7.650;2024-01-25T03:44:29;36.17;;;6.95;;
33006;SDS011;19361;51.598;7.650;2024-01-25T03:49:29;37.03;;;6.22;;
33006;SDS011;19361;51.598;7.650;2024-01-25T03:54:30;32.70;;;6.75;;
33006;SDS011;19361;51.598;7.650;2024-01-25T03:59:31;46.15;;;7.43;;
33006;SDS011;19361;51.598;7.650;2024-01-25T04:04:32;27.67;;;6.38;;
33006;SDS011;19361;51.598;7.650;2024-01-25T04:09:32;36.45;;;5.78;;
33006;SDS011;19361;51.598;7.650;2024-01-25T04:14:33;28.98;;;6.22;;
33006;SDS011;19361;51.598;7.650;2024-01-25T04:19:35;38.15;;;7.15;;
33006;SDS011;19361;51.598;7.650;2024-01-25T04:24:37;33.25;;;6.15;;
33006;SDS011;19361;51.598;7.650;2024-01-25T04:29:40;42.13;;;7.55;;
33006;SDS011;19361;51.598;7.650;2024-01-25T04:34:43;36.47;;;6.18;;
33006;SDS011;19361;51.598;7.650;2024-01-25T04:39:44;42.60;;;7.65;;
33006;SDS011;19361;51.598;7.650;2024-01-25T04:44:45;32.28;;;6.00;;
33006;SDS011;19361;51.598;7.650;2024-01-25T04:49:45;41.42;;;7.05;;
33006;SDS011;19361;51.598;7.650;2024-01-25T04:54:46;33.10;;;6.88;;
33006;SDS011;19361;51.598;7.650;2024-01-25T04:59:46;39.03;;;7.60;;
33006;SDS011;19361;51.598;7.650;2024-01-25T05:04:47;40.08;;;6.68;;
33006;SDS011;19361;51.598;7.650;2024-01-25T05:09:48;40.22;;;6.95;;
33006;SDS011;19361;51.598;7.650;2024-01-25T05:14:48;31.92;;;5.93;;
33006;SDS011;19361;51.598;7.650;2024-01-25T05:19:49;31.80;;;6.93;;
33006;SDS011;19361;51.598;7.650;2024-01-25T05:24:50;35.55;;;6.75;;
33006;SDS011;19361;51.598;7.650;2024-01-25T05:29:50;33.10;;;6.50;;
33006;SDS011;19361;51.598;7.650;2024-01-25T05:34:51;36.00;;;7.18;;
33006;SDS011;19361;51.598;7.650;2024-01-25T05:39:52;29.42;;;7.30;;
33006;SDS011;19361;51.598;7.650;2024-01-25T05:44:53;36.92;;;8.00;;
33006;SDS011;19361;51.598;7.650;2024-01-25T05:49:53;36.20;;;7.45;;
33006;SDS011;19361;51.598;7.650;2024-01-25T05:54:55;32.42;;;6.80;;
33006;SDS011;19361;51.598;7.650;2024-01-25T05:59:55;39.97;;;7.28;;
33006;SDS011;19361;51.598;7.650;2024-01-25T06:04:56;38.63;;;7.32;;
33006;SDS011;19361;51.598;7.650;2024-01-25T06:10:00;35.33;;;8.18;;
33006;SDS011;19361;51.598;7.650;2024-01-25T06:15:00;37.55;;;7.13;;
33006;SDS011;19361;51.598;7.650;2024-01-25T06:20:01;40.85;;;8.23;;
33006;SDS011;19361;51.598;7.650;2024-01-25T06:25:02;39.83;;;7.35;;
33006;SDS011;19361;51.598;7.650;2024-01-25T06:30:04;33.67;;;7.22;;
33006;SDS011;19361;51.598;7.650;2024-01-25T06:35:06;30.25;;;6.82;;
33006;SDS011;19361;51.598;7.650;2024-01-25T06:40:07;37.90;;;7.57;;
33006;SDS011;19361;51.598;7.650;2024-01-25T06:45:08;45.90;;;8.15;;
33006;SDS011;19361;51.598;7.650;2024-01-25T06:50:09;34.95;;;7.80;;
33006;SDS011;19361;51.598;7.650;2024-01-25T06:55:10;35.30;;;8.15;;
33006;SDS011;19361;51.598;7.650;2024-01-25T07:00:12;41.53;;;8.60;;
33006;SDS011;19361;51.598;7.650;2024-01-25T07:05:15;38.20;;;7.53;;
33006;SDS011;19361;51.598;7.650;2024-01-25T07:10:16;33.70;;;6.97;;
33006;SDS011;19361;51.598;7.650;2024-01-25T07:15:17;40.55;;;8.80;;
33006;SDS011;19361;51.598;7.650;2024-01-25T07:20:18;42.72;;;8.07;;
33006;SDS011;19361;51.598;7.650;2024-01-25T07:25:18;48.30;;;8.65;;
33006;SDS011;19361;51.598;7.650;2024-01-25T07:30:19;36.15;;;8.27;;
33006;SDS011;19361;51.598;7.650;2024-01-25T07:35:20;46.67;;;8.35;;
33006;SDS011;19361;51.598;7.650;2024-01-25T07:40:23;49.65;;;8.80;;
33006;SDS011;19361;51.598;7.650;2024-01-25T07:45:23;40.75;;;8.77;;
33006;SDS011;19361;51.598;7.650;2024-01-25T07:50:25;45.55;;;8.77;;
33006;SDS011;19361;51.598;7.650;2024-01-25T07:55:25;37.17;;;8.80;;
33006;SDS011;19361;51.598;7.650;2024-01-25T08:00:27;36.88;;;7.78;;
33006;SDS011;19361;51.598;7.650;2024-01-25T08:05:27;43.05;;;8.77;;
33006;SDS011;19361;51.598;7.650;2024-01-25T08:10:28;41.60;;;8.45;;
33006;SDS011;19361;51.598;7.650;2024-01-25T08:15:28;48.25;;;9.63;;
33006;SDS011;19361;51.598;7.650;2024-01-25T08:20:29;38.17;;;8.68;;
33006;SDS011;19361;51.598;7.650;2024-01-25T08:25:31;38.40;;;7.85;;
33006;SDS011;19361;51.598;7.650;2024-01-25T08:30:32;48.58;;;9.13;;
33006;SDS011;19361;51.598;7.650;2024-01-25T08:35:32;46.80;;;10.13;;
33006;SDS011;19361;51.598;7.650;2024-01-25T08:40:33;46.55;;;9.10;;
33006;SDS011;19361;51.598;7.650;2024-01-25T08:45:33;41.65;;;8.98;;
33006;SDS011;19361;51.598;7.650;2024-01-25T08:50:35;52.20;;;10.73;;
33006;SDS011;19361;51.598;7.650;2024-01-25T08:55:36;43.13;;;9.45;;
33006;SDS011;19361;51.598;7.650;2024-01-25T09:00:36;46.60;;;9.57;;
33006;SDS011;19361;51.598;7.650;2024-01-25T09:05:37;56.35;;;10.30;;
33006;SDS011;19361;51.598;7.650;2024-01-25T09:10:44;48.97;;;10.60;;
33006;SDS011;19361;51.598;7.650;2024-01-25T09:15:45;49.25;;;9.60;;
33006;SDS011;19361;51.598;7.650;2024-01-25T09:20:46;45.25;;;9.60;;
33006;SDS011;19361;51.598;7.650;2024-01-25T09:25:48;48.58;;;10.68;;
33006;SDS011;19361;51.598;7.650;2024-01-25T09:30:49;41.63;;;9.55;;
33006;SDS011;19361;51.598;7.650;2024-01-25T09:35:49;52.15;;;11.13;;
33006;SDS011;19361;51.598;7.650;2024-01-25T09:40:50;52.40;;;11.88;;
33006;SDS011;19361;51.598;7.650;2024-01-25T09:45:54;56.13;;;9.82;;
33006;SDS011;19361;51.598;7.650;2024-01-25T09:50:55;55.33;;;10.88;;
33006;SDS011;19361;51.598;7.650;2024-01-25T10:01:11;50.92;;;10.85;;
33006;SDS011;19361;51.598;7.650;2024-01-25T10:06:13;66.63;;;12.55;;
33006;SDS011;19361;51.598;7.650;2024-01-25T10:11:15;47.13;;;10.73;;
33006;SDS011;19361;51.598;7.650;2024-01-25T10:16:17;42.78;;;11.13;;
33006;SDS011;19361;51.598;7.650;2024-01-25T10:21:19;54.53;;;12.27;;
33006;SDS011;19361;51.598;7.650;2024-01-25T10:26:21;51.03;;;11.15;;
33006;SDS011;19361;51.598;7.650;2024-01-25T10:31:25;43.95;;;11.10;;
33006;SDS011;19361;51.598;7.650;2024-01-25T10:36:25;47.35;;;11.05;;
33006;SDS011;19361;51.598;7.650;2024-01-25T10:41:26;56.38;;;13.18;;
33006;SDS011;19361;51.598;7.650;2024-01-25T10:46:28;50.17;;;12.15;;
33006;SDS011;19361;51.598;7.650;2024-01-25T10:51:29;58.92;;;13.32;;
33006;SDS011;19361;51.598;7.650;2024-01-25T10:56:30;68.18;;;14.65;;
33006;SDS011;19361;51.598;7.650;2024-01-25T11:01:31;57.83;;;13.40;;
33006;SDS011;19361;51.598;7.650;2024-01-25T11:06:34;46.10;;;13.23;;
33006;SDS011;19361;51.598;7.650;2024-01-25T11:11:38;55.55;;;13.77;;
33006;SDS011;19361;51.598;7.650;2024-01-25T11:16:39;58.78;;;13.57;;
33006;SDS011;19361;51.598;7.650;2024-01-25T11:21:45;57.75;;;13.57;;
33006;SDS011;19361;51.598;7.650;2024-01-25T11:26:47;44.13;;;12.80;;
33006;SDS011;19361;51.598;7.650;2024-01-25T11:31:50;49.95;;;12.75;;
33006;SDS011;19361;51.598;7.650;2024-01-25T11:36:52;54.92;;;13.07;;
33006;SDS011;19361;51.598;7.650;2024-01-25T11:41:53;59.55;;;13.70;;
33006;SDS011;19361;51.598;7.650;2024-01-25T11:46:55;44.53;;;12.63;;
33006;SDS011;19361;51.598;7.650;2024-01-25T11:51:57;52.80;;;12.90;;
33006;SDS011;19361;51.598;7.650;2024-01-25T11:56:58;51.70;;;12.80;;
33006;SDS011;19361;51.598;7.650;2024-01-25T12:02:00;41.83;;;11.25;;
33006;SDS011;19361;51.598;7.650;2024-01-25T12:07:01;51.13;;;11.05;;
33006;SDS011;19361;51.598;7.650;2024-01-25T12:12:03;54.63;;;12.57;;
33006;SDS011;19361;51.598;7.650;2024-01-25T12:17:05;43.58;;;11.30;;
33006;SDS011;19361;51.598;7.650;2024-01-25T12:22:06;49.40;;;10.77;;
33006;SDS011;19361;51.598;7.650;2024-01-25T12:27:06;40.63;;;10.55;;
33006;SDS011;19361;51.598;7.650;2024-01-25T12:32:07;46.83;;;11.10;;
33006;SDS011;19361;51.598;7.650;2024-01-25T12:37:08;45.75;;;11.00;;
33006;SDS011;19361;51.598;7.650;2024-01-25T12:42:08;43.72;;;11.18;;
33006;SDS011;19361;51.598;7.650;2024-01-25T12:47:09;49.92;;;9.73;;
33006;SDS011;19361;51.598;7.650;2024-01-25T12:52:10;42.10;;;10.25;;
33006;SDS011;19361;51.598;7.650;2024-01-25T12:57:13;35.20;;;8.82;;
33006;SDS011;19361;51.598;7.650;2024-01-25T13:02:14;34.92;;;8.70;;
33006;SDS011;19361;51.598;7.650;2024-01-25T13:07:15;42.40;;;9.18;;
33006;SDS011;19361;51.598;7.650;2024-01-25T13:12:15;44.10;;;9.35;;
33006;SDS011;19361;51.598;7.650;2024-01-25T13:17:16;49.20;;;9.43;;
33006;SDS011;19361;51.598;7.650;2024-01-25T13:22:17;37.65;;;8.20;;
33006;SDS011;19361;51.598;7.650;2024-01-25T13:27:20;44.45;;;9.57;;
33006;SDS011;19361;51.598;7.650;2024-01-25T13:32:24;37.75;;;8.45;;
33006;SDS011;19361;51.598;7.650;2024-01-25T13:37:25;44.75;;;9.18;;
33006;SDS011;19361;51.598;7.650;2024-01-25T13:42:25;37.67;;;8.50;;
33006;SDS011;19361;51.598;7.650;2024-01-25T13:47:26;43.70;;;7.95;;
33006;SDS011;19361;51.598;7.650;2024-01-25T13:52:28;39.58;;;7.70;;
33006;SDS011;19361;51.598;7.650;2024-01-25T13:57:29;41.38;;;8.20;;
33006;SDS011;19361;51.598;7.650;2024-01-25T14:02:31;39.90;;;7.65;;
33006;SDS011;19361;51.598;7.650;2024-01-25T14:07:32;32.47;;;7.97;;
33006;SDS011;19361;51.598;7.650;2024-01-25T14:12:33;36.83;;;7.90;;
33006;SDS011;19361;51.598;7.650;2024-01-25T14:17:34;35.30;;;7.28;;
33006;SDS011;19361;51.598;7.650;2024-01-25T14:22:36;37.38;;;7.78;;
33006;SDS011;19361;51.598;7.650;2024-01-25T14:27:37;29.70;;;7.20;;
33006;SDS011;19361;51.598;7.650;2024-01-25T14:32:37;31.58;;;7.45;;
33006;SDS011;19361;51.598;7.650;2024-01-25T14:37:38;40.15;;;8.05;;
33006;SDS011;19361;51.598;7.650;2024-01-25T14:42:39;32.00;;;6.60;;
33006;SDS011;19361;51.598;7.650;2024-01-25T14:47:39;31.48;;;7.13;;
33006;SDS011;19361;51.598;7.650;2024-01-25T14:52:40;34.05;;;7.85;;
33006;SDS011;19361;51.598;7.650;2024-01-25T14:57:41;35.97;;;6.93;;
33006;SDS011;19361;51.598;7.650;2024-01-25T15:02:41;32.13;;;7.18;;
33006;SDS011;19361;51.598;7.650;2024-01-25T15:07:42;30.25;;;6.43;;
33006;SDS011;19361;51.598;7.650;2024-01-25T15:12:43;34.78;;;7.97;;
33006;SDS011;19361;51.598;7.650;2024-01-25T15:17:43;29.45;;;6.90;;
33006;SDS011;19361;51.598;7.650;2024-01-25T15:22:44;37.80;;;6.45;;
33006;SDS011;19361;51.598;7.650;2024-01-25T15:27:45;27.67;;;6.47;;
33006;SDS011;19361;51.598;7.650;2024-01-25T15:32:46;38.63;;;7.55;;
33006;SDS011;19361;51.598;7.650;2024-01-25T15:37:46;33.53;;;7.38;;
33006;SDS011;19361;51.598;7.650;2024-01-25T15:42:47;36.15;;;7.07;;
33006;SDS011;19361;51.598;7.650;2024-01-25T15:47:54;32.05;;;6.97;;
33006;SDS011;19361;51.598;7.650;2024-01-25T15:52:55;39.35;;;7.22;;
33006;SDS011;19361;51.598;7.650;2024-01-25T15:57:55;28.65;;;7.20;;
33006;SDS011;19361;51.598;7.650;2024-01-25T16:02:56;41.80;;;9.18;;
33006;SDS011;19361;51.598;7.650;2024-01-25T16:07:57;39.05;;;8.13;;
33006;SDS011;19361;51.598;7.650;2024-01-25T16:12:57;34.13;;;8.73;;
33006;SDS011;19361;51.598;7.650;2024-01-25T16:17:58;43.08;;;10.35;;
33006;SDS011;19361;51.598;7.650;2024-01-25T16:22:59;31.83;;;8.68;;
33006;SDS011;19361;51.598;7.650;2024-01-25T16:28:00;37.90;;;8.57;;
33006;SDS011;19361;51.598;7.650;2024-01-25T16:33:00;34.97;;;8.20;;
33006;SDS011;19361;51.598;7.650;2024-01-25T16:38:01;45.70;;;9.88;;
33006;SDS011;19361;51.598;7.650;2024-01-25T16:43:02;49.03;;;10.43;;
33006;SDS011;19361;51.598;7.650;2024-01-25T16:48:03;45.88;;;9.77;;
33006;SDS011;19361;51.598;7.650;2024-01-25T16:53:05;40.83;;;9.70;;
33006;SDS011;19361;51.598;7.650;2024-01-25T16:58:05;38.65;;;9.40;;
33006;SDS011;19361;51.598;7.650;2024-01-25T17:03:06;37.90;;;10.05;;
33006;SDS011;19361;51.598;7.650;2024-01-25T17:08:07;35.30;;;8.90;;
33006;SDS011;19361;51.598;7.650;2024-01-25T17:13:08;39.00;;;9.15;;
33006;SDS011;19361;51.598;7.650;2024-01-25T17:18:08;38.72;;;9.65;;
33006;SDS011;19361;51.598;7.650;2024-01-25T17:23:09;42.58;;;10.20;;
33006;SDS011;19361;51.598;7.650;2024-01-25T17:28:09;39.53;;;8.70;;
33006;SDS011;19361;51.598;7.650;2024-01-25T17:33:11;37.70;;;9.05;;
33006;SDS011;19361;51.598;7.650;2024-01-25T17:38:11;47.28;;;10.75;;
33006;SDS011;19361;51.598;7.650;2024-01-25T17:43:12;36.45;;;9.52;;
33006;SDS011;19361;51.598;7.650;2024-01-25T17:48:13;47.55;;;9.50;;
33006;SDS011;19361;51.598;7.650;2024-01-25T17:53:13;40.90;;;9.93;;
33006;SDS011;19361;51.598;7.650;2024-01-25T17:58:14;42.30;;;9.27;;
33006;SDS011;19361;51.598;7.650;2024-01-25T18:03:15;36.50;;;9.75;;
33006;SDS011;19361;51.598;7.650;2024-01-25T18:08:15;48.25;;;9.70;;
33006;SDS011;19361;51.598;7.650;2024-01-25T18:13:16;43.35;;;8.82;;
33006;SDS011;19361;51.598;7.650;2024-01-25T18:18:17;36.67;;;9.32;;
33006;SDS011;19361;51.598;7.650;2024-01-25T18:23:17;42.58;;;8.70;;
33006;SDS011;19361;51.598;7.650;2024-01-25T18:28:18;45.67;;;10.07;;
33006;SDS011;19361;51.598;7.650;2024-01-25T18:33:19;28.02;;;7.82;;
33006;SDS011;19361;51.598;7.650;2024-01-25T18:38:20;44.78;;;10.23;;
33006;SDS011;19361;51.598;7.650;2024-01-25T18:43:21;40.08;;;8.93;;
33006;SDS011;19361;51.598;7.650;2024-01-25T18:48:23;42.33;;;9.18;;
33006;SDS011;19361;51.598;7.650;2024-01-25T18:53:28;27.40;;;8.27;;
33006;SDS011;19361;51.598;7.650;2024-01-25T18:58:30;35.60;;;8.80;;
33006;SDS011;19361;51.598;7.650;2024-01-25T19:03:31;34.70;;;9.27;;
33006;SDS011;19361;51.598;7.650;2024-01-25T19:08:33;35.08;;;8.30;;
33006;SDS011;19361;51.598;7.650;2024-01-25T19:13:34;33.60;;;8.05;;
33006;SDS011;19361;51.598;7.650;2024-01-25T19:18:34;28.77;;;7.65;;
33006;SDS011;19361;51.598;7.650;2024-01-25T19:23:35;40.03;;;9.27;;
33006;SDS011;19361;51.598;7.650;2024-01-25T19:28:36;39.22;;;8.32;;
33006;SDS011;19361;51.598;7.650;2024-01-25T19:33:37;36.40;;;9.90;;
33006;SDS011;19361;51.598;7.650;2024-01-25T19:38:38;33.70;;;9.25;;
33006;SDS011;19361;51.598;7.650;2024-01-25T19:43:40;48.80;;;10.13;;
33006;SDS011;19361;51.598;7.650;2024-01-25T19:48:42;40.20;;;9.77;;
33006;SDS011;19361;51.598;7.650;2024-01-25T19:53:43;50.67;;;11.40;;
33006;SDS011;19361;51.598;7.650;2024-01-25T19:58:44;36.17;;;10.65;;
33006;SDS011;19361;51.598;7.650;2024-01-25T20:03:46;40.13;;;10.40;;
33006;SDS011;19361;51.598;7.650;2024-01-25T20:08:47;41.78;;;10.75;;
33006;SDS011;19361;51.598;7.650;2024-01-25T20:13:48;40.13;;;9.63;;
33006;SDS011;19361;51.598;7.650;2024-01-25T20:18:49;35.03;;;8.77;;
33006;SDS011;19361;51.598;7.650;2024-01-25T20:23:50;35.83;;;8.07;;
33006;SDS011;19361;51.598;7.650;2024-01-25T20:28:50;33.47;;;9.10;;
33006;SDS011;19361;51.598;7.650;2024-01-25T20:33:51;37.15;;;7.93;;
33006;SDS011;19361;51.598;7.650;2024-01-25T20:38:51;28.05;;;7.35;;
33006;SDS011;19361;51.598;7.650;2024-01-25T20:43:52;24.45;;;7.05;;
33006;SDS011;19361;51.598;7.650;2024-01-25T20:48:53;27.50;;;7.63;;
33006;SDS011;19361;51.598;7.650;2024-01-25T20:53:53;30.45;;;8.02;;
33006;SDS011;19361;51.598;7.650;2024-01-25T20:58:54;26.30;;;7.78;;
33006;SDS011;19361;51.598;7.650;2024-01-25T21:03:55;31.00;;;7.78;;
33006;SDS011;19361;51.598;7.650;2024-01-25T21:08:56;28.83;;;7.97;;
33006;SDS011;19361;51.598;7.650;2024-01-25T21:13:57;24.27;;;7.50;;
33006;SDS011;19361;51.598;7.650;2024-01-25T21:18:58;27.55;;;7.07;;
33006;SDS011;19361;51.598;7.650;2024-01-25T21:23:59;18.95;;;6.13;;
33006;SDS011;19361;51.598;7.650;2024-01-25T21:29:00;23.55;;;6.82;;
33006;SDS011;19361;51.598;7.650;2024-01-25T21:34:01;18.90;;;6.28;;
33006;SDS011;19361;51.598;7.650;2024-01-25T21:39:01;22.70;;;5.88;;
33006;SDS011;19361;51.598;7.650;2024-01-25T21:44:02;20.25;;;6.28;;
33006;SDS011;19361;51.598;7.650;2024-01-25T21:49:04;21.35;;;6.30;;
33006;SDS011;19361;51.598;7.650;2024-01-25T21:54:05;20.70;;;6.57;;
33006;SDS011;19361;51.598;7.650;2024-01-25T21:59:06;16.80;;;6.60;;
33006;SDS011;19361;51.598;7.650;2024-01-25T22:04:07;21.65;;;8.18;;
33006;SDS011;19361;51.598;7.650;2024-01-25T22:09:07;14.57;;;6.60;;
33006;SDS011;19361;51.598;7.650;2024-01-25T22:14:08;14.98;;;6.88;;
33006;SDS011;19361;51.598;7.650;2024-01-25T22:19:09;15.02;;;7.05;;
33006;SDS011;19361;51.598;7.650;2024-01-25T22:24:10;18.48;;;8.35;;
33006;SDS011;19361;51.598;7.650;2024-01-25T22:29:11;18.17;;;8.52;;
33006;SDS011;19361;51.598;7.650;2024-01-25T22:34:11;13.80;;;8.05;;
33006;SDS011;19361;51.598;7.650;2024-01-25T22:39:12;18.17;;;8.73;;
33006;SDS011;19361;51.598;7.650;2024-01-25T22:44:13;15.45;;;8.45;;
33006;SDS011;19361;51.598;7.650;2024-01-25T22:49:13;15.05;;;9.18;;
33006;SDS011;19361;51.598;7.650;2024-01-25T22:54:14;13.27;;;8.95;;
33006;SDS011;19361;51.598;7.650;2024-01-25T22:59:15;13.50;;;9.40;;
33006;SDS011;19361;51.598;7.650;2024-01-25T23:04:15;17.27;;;10.95;;
33006;SDS011;19361;51.598;7.650;2024-01-25T23:09:17;15.55;;;9.85;;
33006;SDS011;19361;51.598;7.650;2024-01-25T23:14:18;15.45;;;9.35;;
33006;SDS011;19361;51.598;7.650;2024-01-25T23:19:19;12.02;;;9.20;;
33006;SDS011;19361;51.598;7.650;2024-01-25T23:24:21;13.43;;;9.52;;
33006;SDS011;19361;51.598;7.650;2024-01-25T23:29:21;12.45;;;8.98;;
33006;SDS011;19361;51.598;7.650;2024-01-25T23:34:23;10.60;;;8.27;;
33006;SDS011;19361;51.598;7.650;2024-01-25T23:39:23;10.38;;;7.95;;
33006;SDS011;19361;51.598;7.650;2024-01-25T23:44:24;9.90;;;8.38;;
33006;SDS011;19361;51.598;7.650;2024-01-25T23:49:25;9.57;;;7.90;;
33006;SDS011;19361;51.598;7.650;2024-01-25T23:54:26;9.90;;;7.90;;
33006;SDS011;19361;51.598;7.650;2024-01-25T23:59:26;12.27;;;8.68;;
